Terminal Aerodrome Forecast
Issued by NWS

Home | Current Version | Previous Version | Text Only | Print | Product List | Glossary On
Versions: 1 2 3 4 5 6 7 8 9 10 11 12 13 14 15 16 17 18
000
FTUS43 KIND 241700
TAFBMG
TAF
KBMG 241720Z 2418/2518 20006KT P6SM SCT025
     FM242100 22004KT P6SM BKN250
     FM250900 21003KT 5SM BR BKN040
     FM251400 27007KT P6SM SCT030=

USA.gov is the U.S. government's official web portal to all federal, state and local government web resources and services.